createdAt,value
2018-08-07T00:00:29.310Z,21.84
2018-08-07T00:01:00.899Z,21.89
2018-08-07T00:01:32.499Z,21.89
2018-08-07T00:02:04.083Z,21.94
2018-08-07T00:02:35.668Z,22.01
2018-08-07T00:03:07.311Z,22.02
2018-08-07T00:03:38.914Z,22.00
2018-08-07T00:04:10.509Z,21.98
2018-08-07T00:04:42.100Z,21.97
2018-08-07T00:05:13.701Z,21.94
2018-08-07T00:05:45.283Z,21.94
2018-08-07T00:06:16.872Z,21.93
2018-08-07T00:06:48.473Z,21.92
2018-08-07T00:07:20.092Z,21.94
2018-08-07T00:07:51.703Z,21.92
2018-08-07T00:08:23.346Z,21.91
2018-08-07T00:08:54.945Z,21.93
2018-08-07T00:09:26.535Z,21.95
2018-08-07T00:09:58.138Z,21.98
2018-08-07T00:10:29.727Z,21.99
2018-08-07T00:11:01.326Z,22.01
2018-08-07T00:11:32.915Z,22.00
2018-08-07T00:12:04.504Z,22.01
2018-08-07T00:12:36.114Z,22.00
2018-08-07T00:13:07.705Z,21.97
2018-08-07T00:13:39.341Z,21.93
2018-08-07T00:14:10.965Z,21.90
2018-08-07T00:14:42.555Z,21.89
2018-08-07T00:15:14.140Z,21.91
2018-08-07T00:15:45.723Z,21.93
2018-08-07T00:16:17.335Z,21.90
2018-08-07T00:16:48.981Z,21.90
2018-08-07T00:17:20.558Z,21.91
2018-08-07T00:17:52.134Z,21.90
2018-08-07T00:18:23.715Z,21.85
2018-08-07T00:18:55.320Z,21.85
2018-08-07T00:19:26.916Z,21.85
2018-08-07T00:19:58.511Z,21.87
2018-08-07T00:20:30.088Z,21.88
2018-08-07T00:21:01.662Z,21.89
2018-08-07T00:21:33.247Z,21.91
2018-08-07T00:22:04.941Z,21.92
2018-08-07T00:22:36.519Z,21.88
2018-08-07T00:23:08.126Z,21.86
2018-08-07T00:23:39.766Z,21.87
2018-08-07T00:24:11.356Z,21.87
2018-08-07T00:24:42.993Z,21.86
2018-08-07T00:25:14.594Z,21.88
2018-08-07T00:25:46.194Z,21.86
2018-08-07T00:26:17.787Z,21.86
2018-08-07T00:26:49.432Z,21.84
2018-08-07T00:27:21.023Z,21.82
2018-08-07T00:27:52.612Z,21.84
2018-08-07T00:28:24.235Z,21.83
2018-08-07T00:28:55.863Z,21.82
2018-08-07T00:29:27.482Z,21.81
2018-08-07T00:29:59.090Z,21.80
2018-08-07T00:30:30.675Z,21.78
2018-08-07T00:31:02.269Z,21.79
2018-08-07T00:31:33.863Z,21.80
2018-08-07T00:32:05.447Z,21.81
2018-08-07T00:32:37.058Z,21.78
2018-08-07T00:33:08.665Z,21.79
2018-08-07T00:33:40.265Z,21.80
2018-08-07T00:34:11.860Z,21.84
2018-08-07T00:34:43.487Z,21.86
2018-08-07T00:35:15.090Z,21.88
2018-08-07T00:35:46.710Z,21.89
2018-08-07T00:36:18.295Z,21.89
2018-08-07T00:36:49.883Z,21.90
2018-08-07T00:37:21.485Z,21.92
2018-08-07T00:37:53.108Z,21.91
2018-08-07T00:38:24.731Z,21.89
2018-08-07T00:38:56.328Z,21.87
2018-08-07T00:39:27.915Z,21.87
2018-08-07T00:39:59.509Z,21.85
2018-08-07T00:40:31.096Z,21.81
2018-08-07T00:41:02.727Z,21.78
2018-08-07T00:41:34.329Z,21.78
2018-08-07T00:42:05.931Z,21.79
2018-08-07T00:42:37.523Z,21.75
2018-08-07T00:43:09.148Z,21.75
2018-08-07T00:43:40.744Z,21.75
2018-08-07T00:44:12.345Z,21.79
2018-08-07T00:44:43.936Z,21.76
2018-08-07T00:45:15.519Z,21.76
2018-08-07T00:45:47.167Z,21.76
2018-08-07T00:46:18.769Z,21.75
2018-08-07T00:46:50.374Z,21.77
2018-08-07T00:47:22.007Z,21.78
2018-08-07T00:47:53.583Z,21.78
2018-08-07T00:48:25.175Z,21.79
2018-08-07T00:48:56.778Z,21.84
2018-08-07T00:49:28.386Z,21.80
2018-08-07T00:49:59.975Z,21.80
2018-08-07T00:50:31.601Z,21.77
2018-08-07T00:51:03.201Z,21.76
2018-08-07T00:51:34.802Z,21.74
2018-08-07T00:52:06.395Z,21.73
2018-08-07T00:52:37.983Z,21.76
2018-08-07T00:53:09.617Z,21.77
2018-08-07T00:53:41.209Z,21.79
2018-08-07T00:54:12.800Z,21.82
2018-08-07T00:54:44.390Z,21.87
2018-08-07T00:55:15.984Z,21.90
2018-08-07T00:55:47.572Z,21.91
2018-08-07T00:56:19.238Z,21.90
2018-08-07T00:56:50.832Z,21.90
2018-08-07T00:57:22.433Z,21.92
2018-08-07T00:57:54.012Z,21.93
2018-08-07T00:58:25.617Z,21.92
2018-08-07T00:58:57.207Z,21.92
2018-08-07T00:59:28.805Z,21.90
2018-08-07T01:00:00.414Z,21.91
2018-08-07T01:00:32.017Z,21.89
2018-08-07T01:01:03.607Z,21.86
2018-08-07T01:01:35.238Z,21.85
2018-08-07T01:02:06.828Z,21.84
2018-08-07T01:02:38.415Z,21.89
2018-08-07T01:03:10.019Z,21.89
2018-08-07T01:03:41.603Z,21.90
2018-08-07T01:04:14.122Z,21.87
2018-08-07T01:04:45.720Z,21.84
2018-08-07T01:05:17.300Z,21.86
2018-08-07T01:05:48.941Z,21.86
2018-08-07T01:06:20.527Z,21.84
2018-08-07T01:06:52.164Z,21.85
2018-08-07T01:07:23.765Z,21.80
2018-08-07T01:07:55.352Z,21.76
2018-08-07T01:08:26.930Z,21.76
2018-08-07T01:08:58.523Z,21.72
2018-08-07T01:09:30.112Z,21.71
2018-08-07T01:10:01.701Z,21.71
2018-08-07T01:10:33.296Z,21.72
2018-08-07T01:11:04.888Z,21.73
2018-08-07T01:11:36.479Z,21.75
2018-08-07T01:12:08.117Z,21.74
2018-08-07T01:12:39.707Z,21.73
2018-08-07T01:13:11.309Z,21.73
2018-08-07T01:13:42.908Z,21.79
2018-08-07T01:14:14.550Z,21.85
2018-08-07T01:14:46.140Z,21.89
2018-08-07T01:15:17.732Z,21.89
2018-08-07T01:15:49.334Z,21.85
2018-08-07T01:16:20.978Z,21.84
2018-08-07T01:16:52.590Z,21.88
2018-08-07T01:17:24.201Z,21.95
2018-08-07T01:17:55.777Z,22.00
2018-08-07T01:18:27.404Z,22.07
2018-08-07T01:18:59.001Z,22.11
2018-08-07T01:19:30.602Z,22.11
2018-08-07T01:20:02.209Z,22.11
2018-08-07T01:20:33.796Z,22.08
2018-08-07T01:21:05.401Z,22.07
2018-08-07T01:21:36.992Z,22.09
2018-08-07T01:22:08.587Z,22.08
2018-08-07T01:22:40.165Z,22.06
2018-08-07T01:23:11.751Z,22.04
2018-08-07T01:23:43.339Z,22.02
2018-08-07T01:24:14.942Z,22.01
2018-08-07T01:24:46.532Z,22.04
2018-08-07T01:25:18.124Z,22.08
2018-08-07T01:25:49.715Z,22.13
2018-08-07T01:26:21.366Z,22.19
2018-08-07T01:26:52.973Z,22.24
2018-08-07T01:27:24.567Z,22.31
2018-08-07T01:27:56.163Z,22.37
2018-08-07T01:28:27.770Z,22.39
2018-08-07T01:28:59.363Z,22.42
2018-08-07T01:29:30.966Z,22.47
2018-08-07T01:30:02.555Z,22.50
2018-08-07T01:30:34.153Z,22.53
2018-08-07T01:31:05.729Z,22.54
2018-08-07T01:31:37.333Z,22.54
2018-08-07T01:32:08.923Z,22.56
2018-08-07T01:32:40.551Z,22.58
2018-08-07T01:33:12.126Z,22.58
2018-08-07T01:33:43.706Z,22.57
2018-08-07T01:34:15.314Z,22.57
2018-08-07T01:34:46.947Z,22.59
2018-08-07T01:35:18.535Z,22.62
2018-08-07T01:35:50.135Z,22.64
2018-08-07T01:36:21.725Z,22.66
2018-08-07T01:36:53.315Z,22.68
2018-08-07T01:37:24.926Z,22.70
2018-08-07T01:37:56.530Z,22.72
2018-08-07T01:38:28.139Z,22.73
2018-08-07T01:38:59.742Z,22.75
2018-08-07T01:39:31.341Z,22.80
2018-08-07T01:40:02.972Z,22.84
2018-08-07T01:40:34.569Z,22.88
2018-08-07T01:41:06.156Z,22.91
2018-08-07T01:41:37.758Z,22.93
2018-08-07T01:42:09.353Z,22.95
2018-08-07T01:42:40.947Z,22.97
2018-08-07T01:43:12.581Z,22.98
2018-08-07T01:43:44.211Z,22.98
2018-08-07T01:44:15.813Z,23.00
2018-08-07T01:44:47.407Z,23.00
2018-08-07T01:45:18.995Z,23.01
2018-08-07T01:45:50.581Z,23.02
2018-08-07T01:46:22.201Z,23.00
2018-08-07T01:46:53.813Z,22.99
2018-08-07T01:47:25.395Z,23.00
2018-08-07T01:47:56.997Z,23.01
2018-08-07T01:48:28.593Z,22.98
2018-08-07T01:49:00.197Z,22.97
2018-08-07T01:49:31.798Z,22.97
2018-08-07T01:50:03.401Z,22.98
2018-08-07T01:50:35.032Z,23.00
2018-08-07T01:51:06.616Z,23.01
2018-08-07T01:51:38.204Z,23.02
2018-08-07T01:52:09.794Z,23.02
2018-08-07T01:52:41.398Z,23.00
2018-08-07T01:53:12.987Z,23.01
2018-08-07T01:53:44.601Z,23.01
2018-08-07T01:54:16.187Z,23.00
2018-08-07T01:54:47.785Z,23.00
2018-08-07T01:55:19.390Z,22.98
2018-08-07T01:55:50.973Z,23.00
2018-08-07T01:56:22.559Z,22.99
2018-08-07T01:56:54.142Z,22.99
2018-08-07T01:57:25.732Z,22.98
2018-08-07T01:57:57.340Z,22.97
2018-08-07T01:58:28.936Z,22.97
2018-08-07T01:59:00.542Z,22.98
2018-08-07T01:59:32.136Z,22.98
2018-08-07T02:00:03.722Z,23.00
2018-08-07T02:00:35.311Z,23.04
2018-08-07T02:01:06.900Z,23.03
2018-08-07T02:01:38.481Z,23.07
2018-08-07T02:02:10.091Z,23.09
2018-08-07T02:02:41.725Z,23.10
2018-08-07T02:03:13.319Z,23.13
2018-08-07T02:03:44.908Z,23.13
2018-08-07T02:04:16.499Z,23.11
2018-08-07T02:04:48.092Z,23.09
2018-08-07T02:05:19.679Z,23.07
2018-08-07T02:05:51.311Z,23.05
2018-08-07T02:06:22.914Z,23.06
2018-08-07T02:06:54.503Z,23.07
2018-08-07T02:07:26.103Z,23.09
2018-08-07T02:07:57.710Z,23.12
2018-08-07T02:08:29.313Z,23.15
2018-08-07T02:09:00.914Z,23.16
2018-08-07T02:09:32.505Z,23.17
2018-08-07T02:10:04.110Z,23.18
2018-08-07T02:10:35.700Z,23.19
2018-08-07T02:11:07.287Z,23.21
2018-08-07T02:11:38.877Z,23.19
2018-08-07T02:12:10.485Z,23.21
2018-08-07T02:12:42.117Z,23.23
2018-08-07T02:13:13.707Z,23.24
2018-08-07T02:13:45.295Z,23.25
2018-08-07T02:14:16.897Z,23.23
2018-08-07T02:14:48.502Z,23.21
2018-08-07T02:15:20.096Z,23.21
2018-08-07T02:15:51.685Z,23.21
2018-08-07T02:16:23.272Z,23.21
2018-08-07T02:16:54.864Z,23.21
2018-08-07T02:17:26.470Z,23.22
2018-08-07T02:17:58.092Z,23.25
2018-08-07T02:18:29.694Z,23.27
2018-08-07T02:19:01.280Z,23.30
2018-08-07T02:19:32.873Z,23.27
2018-08-07T02:20:04.460Z,23.31
2018-08-07T02:20:36.061Z,23.34
2018-08-07T02:21:07.638Z,23.34
2018-08-07T02:21:39.234Z,23.36
2018-08-07T02:22:10.823Z,23.36
2018-08-07T02:22:42.497Z,23.37
2018-08-07T02:23:14.104Z,23.38
2018-08-07T02:23:45.704Z,23.36
2018-08-07T02:24:17.282Z,23.37
2018-08-07T02:24:48.867Z,23.38
2018-08-07T02:25:20.463Z,23.37
2018-08-07T02:25:52.061Z,23.38
2018-08-07T02:26:23.652Z,23.36
2018-08-07T02:26:55.239Z,23.36
2018-08-07T02:27:26.827Z,23.37
2018-08-07T02:27:58.452Z,23.37
2018-08-07T02:28:30.097Z,23.33
2018-08-07T02:29:01.702Z,23.33
2018-08-07T02:29:33.318Z,23.31
2018-08-07T02:30:04.912Z,23.30
2018-08-07T02:30:36.499Z,23.32
2018-08-07T02:31:08.102Z,23.31
2018-08-07T02:31:39.688Z,23.32
2018-08-07T02:32:11.280Z,23.34
2018-08-07T02:32:42.867Z,23.35
2018-08-07T02:33:14.451Z,23.38
2018-08-07T02:33:46.099Z,23.39
2018-08-07T02:34:17.687Z,23.38
2018-08-07T02:34:49.276Z,23.38
2018-08-07T02:35:20.882Z,23.40
2018-08-07T02:35:52.470Z,23.40
2018-08-07T02:36:24.070Z,23.37
2018-08-07T02:36:55.694Z,23.33
2018-08-07T02:37:27.287Z,23.32
2018-08-07T02:38:36.847Z,23.30
2018-08-07T02:39:08.436Z,23.28
2018-08-07T02:39:40.029Z,23.26
2018-08-07T02:40:11.665Z,23.27
2018-08-07T02:40:43.316Z,23.26
2018-08-07T02:41:14.907Z,23.22
2018-08-07T02:41:46.512Z,23.23
2018-08-07T02:42:18.113Z,23.23
2018-08-07T02:42:49.704Z,23.23
2018-08-07T02:43:21.283Z,23.23
2018-08-07T02:43:52.885Z,23.24
2018-08-07T02:44:24.530Z,23.24
2018-08-07T02:44:56.106Z,23.23
2018-08-07T02:45:27.729Z,23.22
2018-08-07T02:45:59.334Z,23.23
2018-08-07T02:46:30.927Z,23.24
2018-08-07T02:47:02.521Z,23.26
2018-08-07T02:47:34.117Z,23.30
2018-08-07T02:48:05.736Z,23.34
2018-08-07T02:48:37.313Z,23.40
2018-08-07T02:49:08.900Z,23.42
2018-08-07T02:49:40.487Z,23.44
2018-08-07T02:50:12.122Z,23.44
2018-08-07T02:50:43.707Z,23.44
2018-08-07T02:51:15.310Z,23.40
2018-08-07T02:51:46.899Z,23.39
2018-08-07T02:52:18.502Z,23.38
2018-08-07T02:52:50.147Z,23.38
2018-08-07T02:53:21.750Z,23.38
2018-08-07T02:53:53.339Z,23.39
2018-08-07T02:54:24.942Z,23.44
2018-08-07T02:54:56.528Z,23.55
2018-08-07T02:55:28.115Z,23.58
2018-08-07T02:55:59.747Z,23.54
2018-08-07T02:56:31.331Z,23.48
2018-08-07T02:57:02.928Z,23.41
2018-08-07T02:57:34.521Z,23.36
2018-08-07T02:58:06.116Z,23.17
2018-08-07T02:58:37.714Z,23.15
2018-08-07T02:59:09.313Z,23.15
2018-08-07T02:59:40.929Z,23.16
2018-08-07T03:00:12.515Z,23.19
2018-08-07T03:00:44.118Z,23.22
2018-08-07T03:01:15.760Z,22.91
2018-08-07T03:01:47.362Z,23.22
2018-08-07T03:02:18.969Z,23.24
2018-08-07T03:02:50.638Z,23.26
2018-08-07T03:03:22.247Z,23.20
2018-08-07T03:03:53.841Z,23.19
2018-08-07T03:04:25.446Z,23.16
2018-08-07T03:04:57.048Z,23.17
2018-08-07T03:05:28.622Z,23.19
2018-08-07T03:06:00.225Z,23.22
2018-08-07T03:06:31.815Z,23.21
2018-08-07T03:07:03.408Z,23.18
2018-08-07T03:07:34.994Z,23.14
2018-08-07T03:08:06.636Z,23.12
2018-08-07T03:08:38.221Z,23.15
2018-08-07T03:09:09.811Z,23.15
2018-08-07T03:09:41.416Z,23.18
2018-08-07T03:10:13.062Z,23.20
2018-08-07T03:10:44.649Z,23.22
2018-08-07T03:11:16.235Z,23.23
2018-08-07T03:11:47.819Z,23.25
2018-08-07T03:12:19.399Z,23.27
2018-08-07T03:12:51.007Z,23.27
2018-08-07T03:13:22.755Z,23.26
2018-08-07T03:13:54.348Z,23.24
2018-08-07T03:14:25.935Z,23.25
2018-08-07T03:14:57.576Z,23.26
2018-08-07T03:15:29.168Z,23.26
2018-08-07T03:16:00.753Z,23.25
2018-08-07T03:16:32.352Z,23.24
2018-08-07T03:17:03.950Z,23.25
2018-08-07T03:17:35.554Z,23.24
2018-08-07T03:18:07.145Z,23.25
2018-08-07T03:18:38.736Z,23.24
2018-08-07T03:19:10.328Z,23.26
2018-08-07T03:19:41.910Z,23.27
2018-08-07T03:20:13.547Z,23.29
2018-08-07T03:20:45.127Z,23.28
2018-08-07T03:21:16.720Z,23.27
2018-08-07T03:21:48.318Z,23.27
2018-08-07T03:22:19.926Z,23.24
2018-08-07T03:22:51.520Z,23.25
2018-08-07T03:23:23.109Z,23.25
2018-08-07T03:23:54.696Z,23.25
2018-08-07T03:24:26.296Z,23.26
2018-08-07T03:24:57.878Z,23.27
2018-08-07T03:25:29.516Z,23.25
2018-08-07T03:26:01.095Z,23.24
2018-08-07T03:26:32.674Z,23.22
2018-08-07T03:27:04.249Z,23.21
2018-08-07T03:27:35.840Z,23.22
2018-08-07T03:28:07.428Z,23.23
2018-08-07T03:28:39.025Z,23.23
2018-08-07T03:29:10.603Z,23.22
2018-08-07T03:29:42.201Z,23.23
2018-08-07T03:30:13.797Z,23.23
2018-08-07T03:30:45.442Z,23.22
2018-08-07T03:31:17.032Z,23.23
2018-08-07T03:31:48.636Z,23.25
2018-08-07T03:32:20.246Z,23.24
2018-08-07T03:32:51.831Z,23.24
2018-08-07T03:33:23.416Z,23.24
2018-08-07T03:33:55.018Z,23.20
2018-08-07T03:34:26.622Z,23.21
2018-08-07T03:34:58.211Z,23.24
2018-08-07T03:35:29.814Z,23.23
2018-08-07T03:36:01.470Z,23.24
2018-08-07T03:36:33.054Z,23.20
2018-08-07T03:37:04.643Z,23.15
2018-08-07T03:37:36.246Z,23.17
2018-08-07T03:38:07.862Z,23.18
2018-08-07T03:38:39.452Z,23.18
2018-08-07T03:39:11.039Z,23.17
2018-08-07T03:39:42.628Z,23.18
2018-08-07T03:40:14.225Z,23.18
2018-08-07T03:40:45.826Z,23.14
2018-08-07T03:41:17.445Z,23.13
2018-08-07T03:41:49.045Z,23.17
2018-08-07T03:42:20.639Z,23.16
2018-08-07T03:42:52.228Z,23.17
2018-08-07T03:43:23.825Z,23.15
2018-08-07T03:43:55.401Z,23.16
2018-08-07T03:44:26.996Z,23.17
2018-08-07T03:44:58.598Z,23.13
2018-08-07T03:45:30.203Z,23.13
2018-08-07T03:46:01.792Z,23.11
2018-08-07T03:46:33.380Z,23.13
2018-08-07T03:47:04.968Z,23.13
2018-08-07T03:47:36.560Z,23.14
2018-08-07T03:48:08.138Z,23.14
2018-08-07T03:48:39.733Z,23.21
2018-08-07T03:49:11.357Z,23.24
2018-08-07T03:49:42.965Z,23.27
2018-08-07T03:50:14.579Z,23.30
2018-08-07T03:50:46.172Z,23.26
2018-08-07T03:51:17.745Z,23.29
2018-08-07T03:51:49.336Z,23.31
2018-08-07T03:52:20.924Z,23.33
2018-08-07T03:52:52.525Z,23.34
2018-08-07T03:53:24.125Z,23.30
2018-08-07T03:53:55.725Z,23.32
2018-08-07T03:54:27.325Z,23.32
2018-08-07T03:54:58.926Z,23.33
2018-08-07T03:55:30.521Z,23.34
2018-08-07T03:56:02.116Z,23.34
2018-08-07T03:56:33.754Z,23.36
2018-08-07T03:57:05.357Z,23.38
2018-08-07T03:57:36.957Z,23.37
2018-08-07T03:58:08.601Z,23.37
2018-08-07T03:58:40.217Z,23.36
2018-08-07T03:59:11.826Z,23.34
2018-08-07T03:59:43.417Z,23.35
2018-08-07T04:00:14.993Z,23.36
2018-08-07T04:00:46.589Z,23.34
2018-08-07T04:01:18.189Z,23.32
2018-08-07T04:01:49.779Z,23.32
2018-08-07T04:02:21.378Z,23.31
2018-08-07T04:02:52.968Z,23.28
2018-08-07T04:03:24.593Z,23.26
2018-08-07T04:03:56.179Z,23.27
2018-08-07T04:04:27.763Z,23.26
2018-08-07T04:04:59.412Z,23.25
2018-08-07T04:05:30.975Z,23.26
2018-08-07T04:06:02.581Z,23.27
2018-08-07T04:06:34.157Z,23.29
2018-08-07T04:07:05.757Z,23.32
2018-08-07T04:07:37.357Z,23.33
2018-08-07T04:08:08.957Z,23.30
2018-08-07T04:08:40.594Z,23.30
2018-08-07T04:09:12.189Z,23.29
2018-08-07T04:09:43.771Z,23.28
2018-08-07T04:10:15.349Z,23.28
2018-08-07T04:10:46.950Z,23.29
2018-08-07T04:11:18.539Z,23.29
2018-08-07T04:11:50.124Z,23.30
2018-08-07T04:12:21.712Z,23.31
2018-08-07T04:12:53.331Z,23.31
2018-08-07T04:13:24.919Z,23.31
2018-08-07T04:13:56.517Z,23.28
2018-08-07T04:14:28.115Z,23.28
2018-08-07T04:14:59.716Z,23.29
2018-08-07T04:15:31.304Z,23.28
2018-08-07T04:16:02.901Z,23.29
2018-08-07T04:16:34.511Z,23.28
2018-08-07T04:17:06.104Z,23.24
2018-08-07T04:17:37.691Z,23.24
2018-08-07T04:18:09.305Z,23.25
2018-08-07T04:18:40.892Z,23.26
2018-08-07T04:19:12.494Z,23.27
2018-08-07T04:19:44.084Z,23.28
2018-08-07T04:20:15.668Z,23.31
2018-08-07T04:20:47.241Z,23.30
2018-08-07T04:21:18.828Z,23.27
2018-08-07T04:21:50.417Z,23.26
2018-08-07T04:22:22.006Z,23.28
2018-08-07T04:22:53.647Z,23.29
2018-08-07T04:23:25.235Z,23.32
2018-08-07T04:23:56.821Z,23.32
2018-08-07T04:24:28.426Z,23.35
2018-08-07T04:25:00.030Z,23.36
2018-08-07T04:25:31.620Z,23.34
2018-08-07T04:26:03.237Z,23.35
2018-08-07T04:26:34.843Z,23.36
2018-08-07T04:27:06.445Z,23.37
2018-08-07T04:27:38.023Z,23.39
2018-08-07T04:28:09.686Z,23.38
2018-08-07T04:28:41.281Z,23.41
2018-08-07T04:29:12.915Z,23.43
2018-08-07T04:29:44.486Z,23.47
2018-08-07T04:30:16.072Z,23.48
2018-08-07T04:30:47.664Z,23.49
2018-08-07T04:31:19.305Z,23.49
2018-08-07T04:31:50.879Z,23.50
2018-08-07T04:32:22.464Z,23.52
2018-08-07T04:32:54.041Z,23.53
2018-08-07T04:33:25.677Z,23.56
2018-08-07T04:33:57.272Z,23.55
2018-08-07T04:34:28.938Z,23.54
2018-08-07T04:35:00.499Z,23.56
2018-08-07T04:35:32.092Z,23.57
2018-08-07T04:36:03.699Z,23.58
2018-08-07T04:36:35.291Z,23.58
2018-08-07T04:37:06.894Z,23.57
2018-08-07T04:37:38.479Z,23.56
2018-08-07T04:38:10.059Z,23.58
2018-08-07T04:38:41.662Z,23.58
2018-08-07T04:39:13.260Z,23.56
2018-08-07T04:39:44.851Z,23.56
2018-08-07T04:40:16.439Z,23.57
2018-08-07T04:40:48.042Z,23.58
2018-08-07T04:41:19.637Z,23.54
2018-08-07T04:41:51.233Z,23.51
2018-08-07T04:42:22.821Z,23.52
2018-08-07T04:43:32.462Z,23.49
2018-08-07T04:44:04.062Z,23.51
2018-08-07T04:44:35.655Z,23.50
2018-08-07T04:45:07.235Z,23.49
2018-08-07T04:45:38.838Z,23.52
2018-08-07T04:46:10.423Z,23.53
2018-08-07T04:46:42.008Z,23.55
2018-08-07T04:47:13.605Z,23.57
2018-08-07T04:47:45.197Z,23.58
2018-08-07T04:48:16.788Z,23.57
2018-08-07T04:48:48.415Z,23.59
2018-08-07T04:49:20.014Z,23.58
2018-08-07T04:49:51.600Z,23.59
2018-08-07T04:50:23.195Z,23.60
2018-08-07T04:50:54.783Z,23.61
2018-08-07T04:51:26.386Z,23.62
2018-08-07T04:51:58.000Z,23.61
2018-08-07T04:52:29.609Z,23.59
2018-08-07T04:53:01.243Z,23.58
2018-08-07T04:53:32.827Z,23.60
2018-08-07T04:54:04.416Z,23.67
2018-08-07T04:54:36.023Z,23.74
2018-08-07T04:55:07.611Z,23.79
2018-08-07T04:55:39.191Z,23.84
2018-08-07T04:56:10.777Z,23.89
2018-08-07T04:56:42.359Z,23.93
2018-08-07T04:57:13.933Z,23.96
2018-08-07T04:57:45.573Z,23.99
2018-08-07T04:58:17.159Z,24.02
2018-08-07T04:58:48.743Z,24.04
2018-08-07T04:59:20.327Z,24.05
2018-08-07T04:59:51.915Z,24.05
2018-08-07T05:00:23.542Z,24.01
2018-08-07T05:00:55.138Z,24.06
2018-08-07T05:01:26.737Z,24.09
2018-08-07T05:01:58.318Z,24.11
2018-08-07T05:02:29.911Z,24.11
2018-08-07T05:03:01.551Z,24.11
2018-08-07T05:03:33.150Z,24.12
2018-08-07T05:04:04.721Z,24.12
2018-08-07T05:04:36.315Z,24.13
2018-08-07T05:05:07.899Z,24.15
2018-08-07T05:05:39.487Z,24.14
2018-08-07T05:06:11.089Z,24.15
2018-08-07T05:06:42.679Z,24.16
2018-08-07T05:07:14.267Z,24.16
2018-08-07T05:07:45.851Z,24.16
2018-08-07T05:08:17.439Z,24.16
2018-08-07T05:08:49.033Z,24.16
2018-08-07T05:09:20.619Z,24.17
2018-08-07T05:09:52.208Z,24.17
2018-08-07T05:10:23.954Z,24.17
2018-08-07T05:10:55.487Z,24.18
2018-08-07T05:11:27.061Z,24.18
2018-08-07T05:11:58.658Z,24.18
2018-08-07T05:12:30.243Z,24.18
2018-08-07T05:13:01.878Z,24.18
2018-08-07T05:13:33.479Z,24.18
2018-08-07T05:14:05.096Z,24.18
2018-08-07T05:14:36.683Z,24.19
2018-08-07T05:15:08.277Z,24.18
2018-08-07T05:15:39.878Z,24.19
2018-08-07T05:16:11.467Z,24.20
2018-08-07T05:16:43.061Z,24.19
2018-08-07T05:17:14.647Z,24.04
2018-08-07T05:17:46.247Z,24.20
2018-08-07T05:18:17.849Z,24.19
2018-08-07T05:18:49.436Z,24.21
2018-08-07T05:19:21.027Z,24.21
2018-08-07T05:19:52.612Z,24.19
2018-08-07T05:20:24.245Z,24.20
2018-08-07T05:20:55.833Z,24.20
2018-08-07T05:21:27.419Z,24.19
2018-08-07T05:21:59.003Z,24.20
2018-08-07T05:22:30.630Z,24.19
2018-08-07T05:23:02.223Z,24.21
2018-08-07T05:23:33.825Z,24.22
2018-08-07T05:24:05.411Z,24.23
2018-08-07T05:24:37.003Z,24.23
2018-08-07T05:25:08.605Z,24.23
2018-08-07T05:25:40.196Z,24.23
2018-08-07T05:26:11.783Z,24.24
2018-08-07T05:26:43.370Z,24.24
2018-08-07T05:27:14.959Z,24.24
2018-08-07T05:27:46.551Z,24.25
2018-08-07T05:28:18.139Z,24.25
2018-08-07T05:28:49.806Z,24.23
2018-08-07T05:29:21.353Z,24.23
2018-08-07T05:29:52.964Z,24.23
2018-08-07T05:30:24.586Z,24.20
2018-08-07T05:30:56.219Z,24.24
2018-08-07T05:31:27.814Z,24.24
2018-08-07T05:31:59.399Z,24.25
2018-08-07T05:32:30.988Z,24.26
2018-08-07T05:33:02.585Z,24.27
2018-08-07T05:33:34.171Z,24.27
2018-08-07T05:34:05.759Z,24.27
2018-08-07T05:34:37.449Z,24.27
2018-08-07T05:35:09.035Z,24.28
2018-08-07T05:35:40.671Z,24.28
2018-08-07T05:36:12.255Z,24.28
2018-08-07T05:36:43.843Z,24.29
2018-08-07T05:37:15.421Z,24.27
2018-08-07T05:37:47.007Z,24.29
2018-08-07T05:38:18.597Z,24.30
2018-08-07T05:38:50.198Z,24.30
2018-08-07T05:39:21.797Z,24.30
2018-08-07T05:39:53.382Z,24.30
2018-08-07T05:40:24.977Z,24.30
2018-08-07T05:40:56.603Z,24.29
2018-08-07T05:41:28.235Z,24.30
2018-08-07T05:41:59.837Z,24.30
2018-08-07T05:42:31.524Z,24.31
2018-08-07T05:43:03.051Z,24.30
2018-08-07T05:43:34.625Z,24.30
2018-08-07T05:44:06.211Z,24.31
2018-08-07T05:44:37.799Z,24.31
2018-08-07T05:45:09.386Z,24.31
2018-08-07T05:45:40.976Z,24.32
2018-08-07T05:46:12.567Z,24.34
2018-08-07T05:46:44.205Z,24.37
2018-08-07T05:47:15.809Z,24.40
2018-08-07T05:47:47.399Z,24.41
2018-08-07T05:48:18.998Z,24.41
2018-08-07T05:48:50.581Z,24.42
2018-08-07T05:49:22.185Z,24.43
2018-08-07T05:49:53.773Z,24.41
2018-08-07T05:50:25.427Z,24.41
2018-08-07T05:50:57.447Z,24.41
2018-08-07T05:51:28.679Z,24.41
2018-08-07T05:52:00.267Z,24.41
2018-08-07T05:52:31.855Z,24.41
2018-08-07T05:53:03.435Z,24.40
2018-08-07T05:53:35.060Z,24.40
2018-08-07T05:54:06.653Z,24.38
2018-08-07T05:54:38.239Z,24.38
2018-08-07T05:55:09.836Z,24.38
2018-08-07T05:55:41.488Z,24.37
2018-08-07T05:56:13.071Z,24.35
2018-08-07T05:56:44.641Z,24.37
2018-08-07T05:57:16.227Z,24.38
2018-08-07T05:57:47.842Z,24.39
2018-08-07T05:58:19.430Z,24.39
2018-08-07T05:58:51.037Z,24.39
2018-08-07T05:59:22.628Z,24.40
2018-08-07T05:59:54.209Z,24.39
2018-08-07T06:00:25.806Z,24.40
2018-08-07T06:00:57.435Z,24.40
2018-08-07T06:01:29.051Z,24.40
2018-08-07T06:02:00.634Z,24.40
2018-08-07T06:02:32.219Z,24.41
2018-08-07T06:03:03.803Z,24.40
2018-08-07T06:03:35.403Z,24.41
2018-08-07T06:04:06.973Z,24.40
2018-08-07T06:04:38.566Z,24.42
2018-08-07T06:05:10.164Z,24.42
2018-08-07T06:05:41.807Z,24.42
2018-08-07T06:06:13.395Z,24.42
2018-08-07T06:06:45.038Z,24.40
2018-08-07T06:07:16.627Z,24.42
2018-08-07T06:07:48.212Z,24.43
2018-08-07T06:08:19.809Z,24.43
2018-08-07T06:08:51.392Z,24.41
2018-08-07T06:09:22.997Z,24.42
2018-08-07T06:09:54.587Z,24.42
2018-08-07T06:10:26.185Z,24.41
2018-08-07T06:10:57.831Z,24.42
2018-08-07T06:11:29.388Z,24.45
2018-08-07T06:12:01.034Z,24.46
2018-08-07T06:12:32.629Z,24.49
2018-08-07T06:13:04.216Z,24.49
2018-08-07T06:13:35.821Z,24.52
2018-08-07T06:14:07.411Z,24.54
2018-08-07T06:14:39.010Z,24.55
2018-08-07T06:15:10.606Z,24.55
2018-08-07T06:15:42.221Z,24.57
2018-08-07T06:16:13.803Z,24.57
2018-08-07T06:16:45.426Z,24.59
2018-08-07T06:17:17.011Z,24.62
2018-08-07T06:17:48.638Z,24.63
2018-08-07T06:18:20.237Z,24.63
2018-08-07T06:18:51.826Z,24.64
2018-08-07T06:19:23.426Z,24.68
2018-08-07T06:19:55.026Z,24.69
2018-08-07T06:20:26.630Z,24.70
2018-08-07T06:20:58.219Z,24.69
2018-08-07T06:21:29.813Z,24.72
2018-08-07T06:22:01.405Z,24.72
2018-08-07T06:22:32.982Z,24.72
2018-08-07T06:23:04.571Z,24.71
2018-08-07T06:23:36.195Z,24.71
2018-08-07T06:24:07.791Z,24.70
2018-08-07T06:24:39.394Z,24.71
2018-08-07T06:25:10.991Z,24.71
2018-08-07T06:25:42.635Z,24.72
2018-08-07T06:26:14.247Z,24.73
2018-08-07T06:26:45.880Z,24.72
2018-08-07T06:27:17.467Z,24.73
2018-08-07T06:27:49.085Z,24.74
2018-08-07T06:28:20.667Z,24.72
2018-08-07T06:28:52.270Z,24.72
2018-08-07T06:29:23.859Z,24.75
2018-08-07T06:29:55.430Z,24.76
2018-08-07T06:30:27.029Z,24.76
2018-08-07T06:30:58.629Z,24.78
2018-08-07T06:31:30.271Z,24.78
2018-08-07T06:32:01.825Z,24.79
2018-08-07T06:32:33.457Z,24.78
2018-08-07T06:33:05.048Z,24.78
2018-08-07T06:33:36.635Z,24.79
2018-08-07T06:34:08.238Z,24.81
2018-08-07T06:34:39.830Z,24.82
2018-08-07T06:35:11.401Z,24.83
2018-08-07T06:35:42.987Z,24.84
2018-08-07T06:36:14.615Z,24.84
2018-08-07T06:36:46.203Z,24.85
2018-08-07T06:37:17.805Z,24.86
2018-08-07T06:37:49.456Z,24.86
2018-08-07T06:38:21.023Z,24.88
2018-08-07T06:38:52.767Z,24.89
2018-08-07T06:39:24.351Z,24.89
2018-08-07T06:39:55.935Z,24.90
2018-08-07T06:40:27.997Z,24.90
2018-08-07T06:40:59.608Z,24.90
2018-08-07T06:41:31.235Z,24.91
2018-08-07T06:42:02.833Z,24.92
2018-08-07T06:42:34.429Z,24.93
2018-08-07T06:43:06.057Z,24.93
2018-08-07T06:43:37.644Z,24.94
2018-08-07T06:44:09.231Z,24.94
2018-08-07T06:44:40.826Z,24.94
2018-08-07T06:45:12.411Z,24.95
2018-08-07T06:45:44.014Z,24.95
2018-08-07T06:46:15.609Z,24.96
2018-08-07T06:46:47.189Z,24.97
2018-08-07T06:47:18.774Z,24.97
2018-08-07T06:47:50.367Z,24.98
2018-08-07T06:48:21.955Z,24.97